createdAt,value
2018-03-20T00:00:53.894Z,68.70
2018-03-20T00:04:17.177Z,68.53
2018-03-20T00:07:40.463Z,67.62
2018-03-20T00:11:03.738Z,67.45
2018-03-20T00:14:27.020Z,67.43
2018-03-20T00:17:50.309Z,67.33
2018-03-20T00:21:13.598Z,67.51
2018-03-20T00:24:36.883Z,67.43
2018-03-20T00:28:00.173Z,66.77
2018-03-20T00:31:23.438Z,67.63
2018-03-20T00:34:46.738Z,66.98
2018-03-20T00:38:10.104Z,67.25
2018-03-20T00:41:33.369Z,67.06
2018-03-20T00:44:56.676Z,66.92
2018-03-20T00:48:20.043Z,67.63
2018-03-20T00:51:43.373Z,67.74
2018-03-20T00:55:06.665Z,67.29
2018-03-20T00:58:29.952Z,68.23
2018-03-20T01:01:53.241Z,67.38
2018-03-20T01:05:16.505Z,67.43
2018-03-20T01:08:39.804Z,67.19
2018-03-20T01:12:03.161Z,67.57
2018-03-20T01:15:26.428Z,67.60
2018-03-20T01:18:49.806Z,67.69
2018-03-20T01:22:13.095Z,67.77
2018-03-20T01:25:36.379Z,68.13
2018-03-20T01:28:59.707Z,68.12
2018-03-20T01:32:23.013Z,68.27
2018-03-20T01:35:46.283Z,68.33
2018-03-20T01:39:09.567Z,68.80
2018-03-20T01:42:32.851Z,68.89
2018-03-20T01:45:56.168Z,69.67
2018-03-20T01:49:19.487Z,69.96
2018-03-20T01:52:42.795Z,69.97
2018-03-20T01:56:06.077Z,70.27
2018-03-20T01:59:29.352Z,69.66
2018-03-20T02:02:52.620Z,70.49
2018-03-20T02:06:15.915Z,69.84
2018-03-20T02:09:39.204Z,70.42
2018-03-20T02:13:03.276Z,70.67
2018-03-20T02:16:26.572Z,70.12
2018-03-20T02:19:49.856Z,69.73
2018-03-20T02:23:13.119Z,69.85
2018-03-20T02:26:37.164Z,70.22
2018-03-20T02:30:00.520Z,70.30
2018-03-20T02:33:23.844Z,70.34
2018-03-20T02:36:47.922Z,69.90
2018-03-20T02:40:11.965Z,69.54
2018-03-20T02:43:35.331Z,69.53
2018-03-20T02:46:58.598Z,70.36
2018-03-20T02:50:21.884Z,69.33
2018-03-20T02:53:45.159Z,69.75
2018-03-20T02:57:08.470Z,69.57
2018-03-20T03:00:31.744Z,70.12
2018-03-20T03:03:55.024Z,70.27
2018-03-20T03:07:18.313Z,69.54
2018-03-20T03:10:41.583Z,69.53
2018-03-20T03:14:04.902Z,70.33
2018-03-20T03:17:28.323Z,70.38
2018-03-20T03:20:51.599Z,70.04
2018-03-20T03:24:14.873Z,69.53
2018-03-20T03:27:38.154Z,69.69
2018-03-20T03:31:01.458Z,69.97
2018-03-20T03:34:24.732Z,70.27
2018-03-20T03:37:48.011Z,70.02
2018-03-20T03:41:11.291Z,70.27
2018-03-20T03:44:34.572Z,70.21
2018-03-20T03:47:58.654Z,69.93
2018-03-20T03:51:21.947Z,69.57
2018-03-20T03:54:45.219Z,69.03
2018-03-20T03:58:08.567Z,69.57
2018-03-20T04:01:32.607Z,69.49
2018-03-20T04:04:55.878Z,69.51
2018-03-20T04:08:19.163Z,69.63
2018-03-20T04:11:42.455Z,69.20
2018-03-20T04:15:05.767Z,69.08
2018-03-20T04:18:29.087Z,69.19
2018-03-20T04:21:52.396Z,69.51
2018-03-20T04:25:15.738Z,69.20
2018-03-20T04:28:39.007Z,69.37
2018-03-20T04:32:02.327Z,69.14
2018-03-20T04:35:25.688Z,68.57
2018-03-20T04:38:49.024Z,68.64
2018-03-20T04:42:12.311Z,69.11
2018-03-20T04:45:35.619Z,68.78
2018-03-20T04:48:58.939Z,68.73
2018-03-20T04:52:22.221Z,68.52
2018-03-20T04:55:45.567Z,68.51
2018-03-20T04:59:09.685Z,68.25
2018-03-20T05:02:34.119Z,67.85
2018-03-20T05:05:57.401Z,68.39
2018-03-20T05:09:20.778Z,68.23
2018-03-20T05:12:44.121Z,68.51
2018-03-20T05:16:07.410Z,68.46
2018-03-20T05:23:32.048Z,69.16
2018-03-20T05:26:56.182Z,68.96
2018-03-20T05:30:19.547Z,68.62
2018-03-20T05:33:43.622Z,68.05
2018-03-20T05:37:06.999Z,68.08
2018-03-20T05:40:31.111Z,67.87
2018-03-20T05:43:54.465Z,68.67
2018-03-20T05:47:32.367Z,70.05
2018-03-20T05:51:01.543Z,68.81
2018-03-20T05:54:25.538Z,69.08
2018-03-20T05:57:49.092Z,69.38
2018-03-20T06:01:13.200Z,69.03
2018-03-20T06:04:36.497Z,68.41
2018-03-20T06:07:59.867Z,68.93
2018-03-20T06:11:23.211Z,68.29
2018-03-20T06:14:55.912Z,68.45
2018-03-20T06:18:20.105Z,68.81
2018-03-20T06:21:43.539Z,68.20
2018-03-20T06:25:07.043Z,67.35
2018-03-20T06:28:30.439Z,67.57
2018-03-20T06:31:53.789Z,67.45
2018-03-20T06:35:17.990Z,67.56
2018-03-20T06:38:41.367Z,67.73
2018-03-20T06:42:04.716Z,67.13
2018-03-20T06:45:28.081Z,66.45
2018-03-20T06:48:52.223Z,64.67
2018-03-20T06:52:15.593Z,64.42
2018-03-20T06:55:39.747Z,63.74
2018-03-20T06:59:03.845Z,62.82
2018-03-20T07:02:27.895Z,62.83
2018-03-20T07:05:51.259Z,62.79
2018-03-20T07:09:14.618Z,62.45
2018-03-20T07:12:38.726Z,62.16
2018-03-20T07:16:02.829Z,61.68
2018-03-20T07:19:26.179Z,62.33
2018-03-20T07:22:49.534Z,61.96
2018-03-20T07:26:12.981Z,61.68
2018-03-20T07:29:37.179Z,61.01
2018-03-20T07:33:02.401Z,60.77
2018-03-20T07:36:26.466Z,60.66
2018-03-20T07:39:50.490Z,59.13
2018-03-20T07:43:13.796Z,59.45
2018-03-20T07:46:37.201Z,59.18
2018-03-20T07:50:00.598Z,59.09
2018-03-20T07:56:56.475Z,58.13
2018-03-20T08:00:19.802Z,57.00
2018-03-20T08:03:43.451Z,56.85
2018-03-20T08:07:07.612Z,56.76
2018-03-20T08:10:30.947Z,55.53
2018-03-20T08:13:54.231Z,56.35
2018-03-20T08:17:19.006Z,55.68
2018-03-20T08:20:43.125Z,55.02
2018-03-20T08:24:06.395Z,54.76
2018-03-20T08:27:29.671Z,54.66
2018-03-20T08:30:54.108Z,54.55
2018-03-20T08:34:18.466Z,54.25
2018-03-20T08:37:41.783Z,53.91
2018-03-20T08:41:05.110Z,52.72
2018-03-20T08:44:28.416Z,52.61
2018-03-20T08:47:52.580Z,52.06
2018-03-20T08:51:15.969Z,52.26
2018-03-20T08:54:40.173Z,51.31
2018-03-20T08:58:04.002Z,50.82
2018-03-20T09:01:27.291Z,50.69
2018-03-20T09:04:50.623Z,50.36
2018-03-20T09:08:13.896Z,50.91
2018-03-20T09:11:37.161Z,50.17
2018-03-20T09:15:01.208Z,50.67
2018-03-20T09:18:24.479Z,50.67
2018-03-20T09:21:47.759Z,49.11
2018-03-20T09:25:11.035Z,50.54
2018-03-20T09:28:34.324Z,50.65
2018-03-20T09:31:57.647Z,50.43
2018-03-20T09:35:20.963Z,51.05
2018-03-20T09:38:44.224Z,49.34
2018-03-20T09:42:08.259Z,49.32
2018-03-20T09:45:31.531Z,48.91
2018-03-20T09:48:55.565Z,49.22
2018-03-20T09:52:18.850Z,48.21
2018-03-20T09:55:42.340Z,48.04
2018-03-20T09:59:05.612Z,48.57
2018-03-20T10:02:28.928Z,48.22
2018-03-20T10:05:52.203Z,47.77
2018-03-20T10:09:15.471Z,47.50
2018-03-20T10:12:38.762Z,46.51
2018-03-20T10:16:02.107Z,46.08
2018-03-20T10:19:26.197Z,44.97
2018-03-20T10:22:50.299Z,44.42
2018-03-20T10:26:13.602Z,44.97
2018-03-20T10:29:36.908Z,42.30
2018-03-20T10:33:00.161Z,42.40
2018-03-20T10:36:27.089Z,42.32
2018-03-20T10:39:50.491Z,43.01
2018-03-20T10:43:13.747Z,42.23
2018-03-20T10:46:37.803Z,42.22
2018-03-20T10:50:01.095Z,42.98
2018-03-20T10:53:24.371Z,42.67
2018-03-20T10:56:47.686Z,43.01
2018-03-20T11:00:10.973Z,42.23
2018-03-20T11:03:35.020Z,41.87
2018-03-20T11:06:58.274Z,43.06
2018-03-20T11:10:21.562Z,43.23
2018-03-20T11:13:45.605Z,43.17
2018-03-20T11:17:08.887Z,42.89
2018-03-20T11:20:32.161Z,43.43
2018-03-20T11:23:55.421Z,45.03
2018-03-20T11:27:19.473Z,44.52
2018-03-20T11:30:42.753Z,43.41
2018-03-20T11:34:06.026Z,43.36
2018-03-20T11:37:29.380Z,43.50
2018-03-20T11:40:52.674Z,43.39
2018-03-20T11:44:15.942Z,43.03
2018-03-20T11:47:39.213Z,42.89
2018-03-20T11:51:02.495Z,43.68
2018-03-20T11:54:26.533Z,43.27
2018-03-20T11:57:49.789Z,43.56
2018-03-20T12:01:13.858Z,44.40
2018-03-20T12:04:37.143Z,44.83
2018-03-20T12:08:19.179Z,44.41
2018-03-20T12:11:42.591Z,43.76
2018-03-20T12:15:05.855Z,45.02
2018-03-20T12:18:29.135Z,45.25
2018-03-20T12:21:52.407Z,45.01
2018-03-20T12:25:16.504Z,45.52
2018-03-20T12:28:39.707Z,44.79
2018-03-20T12:32:02.979Z,44.09
2018-03-20T12:35:27.022Z,44.64
2018-03-20T12:38:50.297Z,43.66
2018-03-20T12:42:13.585Z,42.89
2018-03-20T12:45:36.845Z,42.40
2018-03-20T12:49:00.881Z,41.84
2018-03-20T12:52:24.137Z,40.97
2018-03-20T12:55:47.535Z,41.05
2018-03-20T12:59:10.823Z,42.55
2018-03-20T13:02:34.110Z,43.60
2018-03-20T13:05:57.377Z,42.49
2018-03-20T13:09:20.645Z,41.36
2018-03-20T13:12:44.692Z,40.89
2018-03-20T13:16:07.965Z,40.53
2018-03-20T13:19:31.229Z,40.85
2018-03-20T13:22:54.511Z,40.29
2018-03-20T13:26:17.802Z,39.71
2018-03-20T13:29:41.098Z,39.11
2018-03-20T13:33:04.380Z,39.55
2018-03-20T13:36:27.652Z,40.34
2018-03-20T13:39:51.756Z,39.22
2018-03-20T13:43:15.039Z,40.12
2018-03-20T13:46:38.398Z,38.22
2018-03-20T13:50:01.744Z,38.55
2018-03-20T13:53:27.958Z,39.86
2018-03-20T13:56:51.254Z,38.91
2018-03-20T14:00:14.547Z,38.84
2018-03-20T14:03:38.581Z,38.23
2018-03-20T14:07:04.490Z,38.84
2018-03-20T14:10:27.941Z,40.33
2018-03-20T14:13:51.317Z,40.40
2018-03-20T14:17:15.447Z,41.13
2018-03-20T14:20:38.787Z,39.46
2018-03-20T14:24:02.271Z,39.49
2018-03-20T14:27:27.656Z,38.86
2018-03-20T14:30:51.833Z,39.24
2018-03-20T14:34:15.252Z,38.71
2018-03-20T14:37:47.485Z,37.97
2018-03-20T14:41:13.362Z,37.84
2018-03-20T14:44:36.738Z,36.98
2018-03-20T14:48:02.033Z,38.62
2018-03-20T14:51:25.327Z,39.08
2018-03-20T14:54:49.472Z,39.68
2018-03-20T14:58:12.827Z,39.87
2018-03-20T15:01:36.210Z,39.28
2018-03-20T15:05:00.383Z,38.23
2018-03-20T15:08:24.672Z,39.43
2018-03-20T15:11:48.880Z,39.50
2018-03-20T15:15:12.151Z,38.27
2018-03-20T15:18:35.448Z,38.49
2018-03-20T15:21:58.730Z,37.59
2018-03-20T15:25:22.899Z,36.76
2018-03-20T15:28:46.957Z,35.73
2018-03-20T15:32:10.232Z,36.33
2018-03-20T15:35:33.536Z,37.10
2018-03-20T15:38:56.868Z,37.00
2018-03-20T15:42:20.134Z,36.35
2018-03-20T15:45:44.198Z,37.43
2018-03-20T15:49:07.527Z,38.80
2018-03-20T15:52:30.797Z,38.95
2018-03-20T15:55:54.067Z,39.33
2018-03-20T15:59:18.094Z,38.73
2018-03-20T16:02:41.383Z,38.71
2018-03-20T16:06:04.644Z,38.88
2018-03-20T16:09:28.876Z,39.17
2018-03-20T16:12:52.912Z,39.75
2018-03-20T16:16:16.185Z,39.37
2018-03-20T16:19:39.458Z,41.13
2018-03-20T16:23:03.491Z,41.38
2018-03-20T16:26:26.749Z,41.69
2018-03-20T16:29:50.791Z,41.42
2018-03-20T16:33:14.084Z,43.52
2018-03-20T16:36:37.430Z,41.79
2018-03-20T16:40:00.679Z,42.38
2018-03-20T16:43:24.857Z,42.85
2018-03-20T16:46:48.113Z,41.70
2018-03-20T16:50:12.185Z,42.47
2018-03-20T16:53:35.445Z,46.84
2018-03-20T16:56:58.714Z,49.62
2018-03-20T17:00:22.027Z,49.59
2018-03-20T17:03:46.026Z,51.90
2018-03-20T17:07:10.154Z,53.87
2018-03-20T17:10:34.226Z,53.98
2018-03-20T17:13:58.340Z,53.77
2018-03-20T17:17:21.656Z,53.67
2018-03-20T17:20:45.451Z,55.28
2018-03-20T17:24:08.801Z,55.29
2018-03-20T17:27:32.059Z,56.33
2018-03-20T17:30:56.189Z,55.12
2018-03-20T17:34:19.463Z,55.99
2018-03-20T17:37:44.418Z,59.33
2018-03-20T17:41:07.712Z,57.78
2018-03-20T17:44:30.979Z,57.31
2018-03-20T17:47:54.282Z,57.00
2018-03-20T17:51:19.843Z,56.55
2018-03-20T17:54:43.523Z,56.08
2018-03-20T17:58:08.010Z,59.10
2018-03-20T18:01:31.440Z,59.41
2018-03-20T18:04:55.530Z,62.19
2018-03-20T18:08:18.944Z,63.15
2018-03-20T18:11:44.198Z,64.46
2018-03-20T18:15:09.845Z,64.61
2018-03-20T18:18:33.117Z,65.43
2018-03-20T18:21:56.376Z,66.77
2018-03-20T18:25:20.447Z,66.26
2018-03-20T18:28:44.491Z,66.94
2018-03-20T18:32:10.110Z,67.35
2018-03-20T18:35:33.435Z,67.61
2018-03-20T18:38:57.621Z,67.37
2018-03-20T18:42:21.063Z,67.14
2018-03-20T18:45:45.099Z,68.08
2018-03-20T18:49:09.249Z,68.16
2018-03-20T18:52:34.272Z,69.68
2018-03-20T18:55:57.610Z,71.96
2018-03-20T18:59:20.995Z,73.93
2018-03-20T19:02:45.071Z,74.92
2018-03-20T19:06:08.361Z,76.15
2018-03-20T19:09:32.760Z,75.57
2018-03-20T19:12:56.108Z,74.92
2018-03-20T19:16:20.268Z,75.77
2018-03-20T19:19:44.415Z,74.32
2018-03-20T19:23:08.496Z,74.95
2018-03-20T19:26:32.553Z,73.87
2018-03-20T19:29:55.968Z,73.75
2018-03-20T19:33:19.271Z,72.26
2018-03-20T19:36:42.762Z,72.57
2018-03-20T19:40:06.891Z,72.95
2018-03-20T19:43:31.011Z,74.11
2018-03-20T19:46:55.395Z,73.95
2018-03-20T19:50:20.662Z,75.41
2018-03-20T19:53:45.043Z,74.01
2018-03-20T19:57:09.080Z,72.65
2018-03-20T20:00:32.346Z,73.03
2018-03-20T20:03:55.660Z,73.36
2018-03-20T20:07:19.208Z,73.45
2018-03-20T20:10:43.313Z,73.26
2018-03-20T20:14:07.912Z,73.92
2018-03-20T20:17:32.770Z,73.16
2018-03-20T20:20:57.256Z,71.33
2018-03-20T20:24:20.626Z,71.61
2018-03-20T20:27:45.505Z,71.47
2018-03-20T20:31:10.688Z,70.67
2018-03-20T20:34:34.760Z,70.92
2018-03-20T20:37:59.594Z,70.90
2018-03-20T20:41:23.645Z,71.10
2018-03-20T20:44:46.954Z,70.71
2018-03-20T20:48:11.034Z,69.86
2018-03-20T20:51:35.173Z,70.87
2018-03-20T20:55:00.513Z,72.81
2018-03-20T20:58:24.609Z,73.57
2018-03-20T21:01:47.895Z,69.80
2018-03-20T21:05:11.968Z,69.93
2018-03-20T21:08:36.016Z,69.83
2018-03-20T21:12:00.384Z,71.41
2018-03-20T21:15:23.717Z,71.32
2018-03-20T21:18:47.817Z,69.83
2018-03-20T21:22:11.110Z,68.68
2018-03-20T21:25:34.380Z,69.98
2018-03-20T21:28:57.686Z,71.28
2018-03-20T21:32:20.962Z,70.52
2018-03-20T21:35:44.261Z,70.90
2018-03-20T21:39:07.631Z,70.52
2018-03-20T21:42:31.678Z,70.21
2018-03-20T21:45:54.997Z,70.80
2018-03-20T21:49:18.329Z,71.37
2018-03-20T21:52:41.611Z,72.77
2018-03-20T21:56:04.983Z,72.68
2018-03-20T21:59:28.335Z,73.25
2018-03-20T22:02:51.642Z,73.14
2018-03-20T22:06:15.117Z,72.76
2018-03-20T22:09:38.409Z,73.22
2018-03-20T22:13:01.751Z,72.33
2018-03-20T22:16:25.041Z,72.16
2018-03-20T22:19:48.310Z,72.50
2018-03-20T22:23:11.609Z,72.65
2018-03-20T22:26:34.987Z,73.67
2018-03-20T22:30:04.620Z,72.77
2018-03-20T22:33:28.073Z,72.31
2018-03-20T22:36:51.354Z,72.37
2018-03-20T22:40:14.717Z,72.29
2018-03-20T22:43:38.023Z,72.23
2018-03-20T22:47:01.404Z,72.19
2018-03-20T22:50:25.518Z,71.07
2018-03-20T22:53:55.089Z,71.98
2018-03-20T22:57:19.191Z,72.55
2018-03-20T23:00:42.814Z,72.44
2018-03-20T23:04:06.194Z,72.56
2018-03-20T23:07:29.467Z,73.13
2018-03-20T23:10:52.795Z,72.61
2018-03-20T23:14:16.063Z,73.54
2018-03-20T23:17:39.421Z,73.18
2018-03-20T23:21:02.698Z,73.74
2018-03-20T23:24:26.686Z,73.11
2018-03-20T23:27:50.740Z,73.52
2018-03-20T23:31:14.043Z,74.41
2018-03-20T23:34:38.093Z,74.28
2018-03-20T23:38:01.378Z,72.83
2018-03-20T23:41:24.803Z,73.80
2018-03-20T23:44:48.095Z,72.85
2018-03-20T23:48:11.363Z,73.08
2018-03-20T23:51:34.627Z,73.06
2018-03-20T23:54:58.691Z,73.37
2018-03-20T23:58:21.959Z,73.49
